N739YZ VABB-VABB
Flight info
| Callsign | N739YZ |
|---|---|
| Flight time | 0h 2m |
| Altitude | 4000 |
| Route | DCT |
| Aircraft | C172/L-VGD/C |
Departure
| Time | 2026-04-30 04:52 |
|---|---|
| Airport | Chhatrapati Shivaji Maharaj International Airport (VABB) |
Arrival
| Time | 2026-04-30 04:55 |
|---|---|
| Airport | Chhatrapati Shivaji Maharaj International Airport (VABB) |
| Time | Latitude | Longitude | Altitude | Speed | Heading |
|---|---|---|---|---|---|
| 2026-04-30 04:40 | 19.09293 | 72.87440 | 28 ft | 0 kts | 220° |
| 2026-04-30 04:46 | 19.09292 | 72.87439 | 28 ft | 2 kts | 219° |
| 2026-04-30 04:46 | 19.09241 | 72.87438 | 28 ft | 15 kts | 120° |
| 2026-04-30 04:46 | 19.09291 | 72.87529 | 28 ft | 17 kts | 46° |
| 2026-04-30 04:47 | 19.09366 | 72.87621 | 28 ft | 18 kts | 103° |
| 2026-04-30 04:47 | 19.09278 | 72.87667 | 28 ft | 7 kts | 168° |
| 2026-04-30 04:47 | 19.09238 | 72.87673 | 28 ft | 6 kts | 179° |
| 2026-04-30 04:47 | 19.09195 | 72.87673 | 28 ft | 7 kts | 181° |
| 2026-04-30 04:48 | 19.09150 | 72.87694 | 28 ft | 8 kts | 114° |
| 2026-04-30 04:48 | 19.09143 | 72.87762 | 28 ft | 10 kts | 102° |
| 2026-04-30 04:48 | 19.09088 | 72.87808 | 28 ft | 12 kts | 179° |
| 2026-04-30 04:48 | 19.09012 | 72.87805 | 28 ft | 0 kts | 180° |
| 2026-04-30 04:51 | 19.08976 | 72.87806 | 27 ft | 16 kts | 179° |
| 2026-04-30 04:51 | 19.08881 | 72.87571 | 27 ft | 61 kts | 269° |
| 2026-04-30 04:51 | 19.08867 | 72.87011 | 100 ft | 85 kts | 268° |
| 2026-04-30 04:51 | 19.08884 | 72.86358 | 296 ft | 76 kts | 269° |
| 2026-04-30 04:52 | 19.08906 | 72.85773 | 456 ft | 90 kts | 271° |
| 2026-04-30 04:52 | 19.08945 | 72.85057 | 538 ft | 105 kts | 271° |
| 2026-04-30 04:52 | 19.09018 | 72.84353 | 861 ft | 97 kts | 266° |
| 2026-04-30 04:52 | 19.08705 | 72.83781 | 919 ft | 93 kts | 201° |
| 2026-04-30 04:53 | 19.07929 | 72.83811 | 617 ft | 127 kts | 172° |
| 2026-04-30 04:53 | 19.07114 | 72.84031 | 822 ft | 119 kts | 155° |
| 2026-04-30 04:53 | 19.06994 | 72.84850 | 830 ft | 134 kts | 64° |
| 2026-04-30 04:53 | 19.06979 | 72.85745 | 884 ft | 126 kts | 109° |
| 2026-04-30 04:54 | 19.06759 | 72.86617 | 973 ft | 104 kts | 101° |
| 2026-04-30 04:54 | 19.07024 | 72.87293 | 629 ft | 105 kts | 53° |
| 2026-04-30 04:54 | 19.07527 | 72.87799 | 412 ft | 101 kts | 21° |
| 2026-04-30 04:54 | 19.08099 | 72.87626 | 103 ft | 83 kts | 302° |
| 2026-04-30 04:55 | 19.08417 | 72.87218 | 27 ft | 61 kts | 311° |
| 2026-04-30 04:55 | 19.08691 | 72.86968 | 28 ft | 45 kts | 290° |
| 2026-04-30 04:55 | 19.08700 | 72.86711 | 28 ft | 15 kts | 267° |
| 2026-04-30 04:55 | 19.08736 | 72.86653 | 28 ft | 0 kts | 326° |
| 2026-04-30 04:57 | 19.08738 | 72.86652 | 28 ft | 4 kts | 327° |
| 2026-04-30 04:57 | 19.08812 | 72.86589 | 28 ft | 24 kts | 314° |
| 2026-04-30 04:57 | 19.08965 | 72.86425 | 28 ft | 33 kts | 326° |
| 2026-04-30 04:57 | 19.09042 | 72.86405 | 30 ft | 0 kts | 356° |
| 2026-04-30 04:58 | 19.09055 | 72.86412 | 30 ft | 10 kts | 51° |
| 2026-04-30 04:59 | 19.09039 | 72.86540 | 30 ft | 23 kts | 89° |
| 2026-04-30 04:59 | 19.09042 | 72.86732 | 30 ft | 30 kts | 90° |
| 2026-04-30 04:59 | 19.09047 | 72.86970 | 29 ft | 35 kts | 86° |
| 2026-04-30 04:59 | 19.09051 | 72.87241 | 29 ft | 39 kts | 89° |
| 2026-04-30 05:00 | 19.09056 | 72.87539 | 28 ft | 42 kts | 91° |
| 2026-04-30 05:00 | 19.09056 | 72.87716 | 28 ft | 13 kts | 88° |
| 2026-04-30 05:00 | 19.09056 | 72.87729 | 28 ft | 0 kts | 89° |
| 2026-04-30 05:01 | 19.09052 | 72.87768 | 28 ft | 22 kts | 120° |
| 2026-04-30 05:02 | 19.08923 | 72.87795 | 27 ft | 22 kts | 194° |
| 2026-04-30 05:02 | 19.08884 | 72.87517 | 28 ft | 61 kts | 270° |
| 2026-04-30 05:02 | 19.08881 | 72.87057 | 241 ft | 60 kts | 266° |
| 2026-04-30 05:02 | 19.08639 | 72.87011 | 376 ft | 65 kts | 133° |
| 2026-04-30 05:03 | 19.08253 | 72.87084 | 620 ft | 60 kts | 178° |
| 2026-04-30 05:03 | 19.07905 | 72.87242 | 868 ft | 67 kts | 149° |
| 2026-04-30 05:03 | 19.07531 | 72.87564 | 904 ft | 75 kts | 129° |
| 2026-04-30 05:03 | 19.07721 | 72.88017 | 846 ft | 77 kts | 22° |
| 2026-04-30 05:04 | 19.08128 | 72.87697 | 482 ft | 76 kts | 308° |
| 2026-04-30 05:04 | 19.08448 | 72.87284 | 290 ft | 72 kts | 320° |
| 2026-04-30 05:04 | 19.08773 | 72.86881 | 52 ft | 69 kts | 323° |
| 2026-04-30 05:04 | 19.09070 | 72.86581 | 66 ft | 60 kts | 306° |
| 2026-04-30 05:05 | 19.09365 | 72.86223 | 218 ft | 66 kts | 308° |
| 2026-04-30 05:05 | 19.09389 | 72.85985 | 41 ft | 0 kts | 200° |